Time;durP1;ratioP1;P1;durP2;ratioP2;P2;SDS_P1;SDS_P2;PMS_P1;PMS_P2;Temp;Humidity;BMP_temperature;BMP_pressure;BME280_temperature;BME280_humidity;BME280_pressure;Samples;Min_cycle;Max_cycle;Signal;HPM_P1;HPM_P2
2022/05/14 00:01:48;;;;;;;;;;;13.10;99.90;;;;;;5055536;28;19932;-68
2022/05/14 00:04:13;;;;;;;;;;;12.40;99.90;;;;;;5055555;28;19924;-68
2022/05/14 00:06:39;;;;;;;;;;;12.40;99.90;;;;;;5054233;28;19939;-68
2022/05/14 00:09:05;;;;;;;;;;;12.40;99.90;;;;;;5055428;28;19924;-69
2022/05/14 00:14:15;;;;;;;;;;;12.50;99.90;;;;;;5054398;28;20522;-67
2022/05/14 00:16:41;;;;;;;;;;;12.30;99.90;;;;;;5055323;28;20037;-68
2022/05/14 00:19:08;;;;;;;;;;;12.30;99.90;;;;;;5055305;28;20295;-68
2022/05/14 00:21:35;;;;;;;;;;;12.30;99.90;;;;;;5055275;28;19932;-68
2022/05/14 00:24:01;;;;;;;;;;;12.30;99.90;;;;;;5055270;28;19983;-68
2022/05/14 00:26:26;;;;;;;;;;;12.30;99.90;;;;;;5054814;28;19964;-68
2022/05/14 00:28:52;;;;;;;;;;;12.20;99.90;;;;;;5054918;28;19929;-69
2022/05/14 00:31:18;;;;;;;;;;;12.20;99.90;;;;;;5055113;28;19925;-68
2022/05/14 00:33:43;;;;;;;;;;;12.20;99.90;;;;;;5054974;28;19925;-68
2022/05/14 00:36:10;;;;;;;;;;;12.10;99.90;;;;;;5054989;28;20026;-67
2022/05/14 00:38:35;;;;;;;;;;;12.60;99.90;;;;;;5054599;28;19925;-68
2022/05/14 00:41:02;;;;;;;;;;;12.20;99.90;;;;;;5054629;28;19931;-68
2022/05/14 00:43:29;;;;;;;;;;;12.30;99.90;;;;;;5054004;28;19947;-68
2022/05/14 00:46:05;;;;;;;;;;;12.10;99.90;;;;;;5054554;28;19925;-69
2022/05/14 00:48:34;;;;;;;;;;;12.10;99.90;;;;;;5053508;28;19925;-67
2022/05/14 00:51:00;;;;;;;;;;;12.10;99.90;;;;;;5054522;28;20019;-67
2022/05/14 00:53:30;;;;;;;;;;;12.00;99.90;;;;;;5054533;28;20032;-69
2022/05/14 00:55:57;;;;;;;;;;;12.00;99.90;;;;;;5054307;28;19932;-68
2022/05/14 00:58:41;;;;;;;;;;;12.00;99.90;;;;;;5054654;28;20383;-67
2022/05/14 01:01:07;;;;;;;;;;;12.00;99.90;;;;;;5053501;28;19933;-69
2022/05/14 01:03:33;;;;;;;;;;;12.40;99.90;;;;;;5054421;28;20030;-68
2022/05/14 01:06:00;;;;;;;;;;;12.00;99.90;;;;;;5054357;28;19928;-69
2022/05/14 01:08:26;;;;;;;;;;;12.00;99.90;;;;;;5054117;28;19931;-68
2022/05/14 01:10:52;;;;;;;;;;;12.60;99.90;;;;;;5053016;28;20375;-68
2022/05/14 01:13:18;;;;;;;;;;;11.90;99.90;;;;;;5054333;28;19972;-67
2022/05/14 01:15:48;;;;;;;;;;;11.90;99.90;;;;;;5054059;28;19929;-67
2022/05/14 01:18:15;;;;;;;;;;;11.90;99.90;;;;;;5054257;28;19964;-68
2022/05/14 01:20:41;;;;;;;;;;;11.80;99.90;;;;;;5053679;28;19929;-67
2022/05/14 01:23:25;;;;;;;;;;;10.70;99.90;;;;;;5053590;28;19925;-68
2022/05/14 01:26:28;;;;;;;;;;;11.70;99.90;;;;;;5053579;28;20445;-67
2022/05/14 01:28:57;;;;;;;;;;;11.70;99.90;;;;;;5052738;28;20361;-68
2022/05/14 01:31:23;;;;;;;;;;;11.70;99.90;;;;;;5053155;28;19972;-67
2022/05/14 01:33:49;;;;;;;;;;;11.70;99.90;;;;;;5053274;28;19948;-68
2022/05/14 01:36:15;;;;;;;;;;;11.70;99.90;;;;;;5053516;28;19932;-68
2022/05/14 01:38:41;;;;;;;;;;;11.70;99.90;;;;;;5053266;28;19925;-68
2022/05/14 01:41:06;;;;;;;;;;;11.70;99.90;;;;;;5053194;28;19929;-69
2022/05/14 01:43:32;;;;;;;;;;;11.70;99.90;;;;;;5053177;28;19997;-69
2022/05/14 01:45:57;;;;;;;;;;;11.70;99.90;;;;;;5052477;28;20319;-67
2022/05/14 01:48:23;;;;;;;;;;;11.70;99.90;;;;;;5053451;28;19924;-69
2022/05/14 01:50:48;;;;;;;;;;;11.60;99.90;;;;;;5052354;28;20287;-68
2022/05/14 01:53:14;;;;;;;;;;;11.70;99.90;;;;;;5052995;28;19925;-69
2022/05/14 01:55:39;;;;;;;;;;;11.80;99.90;;;;;;5052639;28;19947;-68
2022/05/14 01:58:36;;;;;;;;;;;11.60;99.90;;;;;;5053381;28;20296;-69
2022/05/14 02:00:51;;;;;;;;;;;11.60;99.90;;;;;;5053143;28;19924;-67
2022/05/14 02:03:17;;;;;;;;;;;11.70;99.90;;;;;;5053182;28;20008;-68
2022/05/14 02:05:42;;;;;;;;;;;11.60;99.90;;;;;;5052188;28;19929;-69
2022/05/14 02:08:08;;;;;;;;;;;11.60;99.90;;;;;;5053457;28;19934;-67
2022/05/14 02:10:33;;;;;;;;;;;11.70;99.90;;;;;;5053343;28;19929;-68
2022/05/14 02:12:59;;;;;;;;;;;11.60;99.90;;;;;;5052979;28;19925;-67
2022/05/14 02:15:24;;;;;;;;;;;11.60;99.90;;;;;;5053050;28;20367;-68
2022/05/14 02:17:50;;;;;;;;;;;11.60;99.90;;;;;;5053166;28;20351;-67
2022/05/14 02:20:16;;;;;;;;;;;11.60;99.90;;;;;;5052116;28;19928;-67
2022/05/14 02:22:42;;;;;;;;;;;11.50;99.90;;;;;;5052281;28;20392;-68
2022/05/14 02:25:08;;;;;;;;;;;11.50;99.90;;;;;;5052411;28;19925;-68
2022/05/14 02:27:34;;;;;;;;;;;11.50;99.90;;;;;;5053121;28;19925;-68
2022/05/14 02:30:00;;;;;;;;;;;11.50;99.90;;;;;;5053051;28;19948;-68
2022/05/14 02:32:26;;;;;;;;;;;11.50;99.90;;;;;;5053001;28;20019;-68
2022/05/14 02:34:52;;;;;;;;;;;11.70;99.90;;;;;;5051522;28;19975;-68
2022/05/14 02:37:19;;;;;;;;;;;11.50;99.90;;;;;;5051941;28;19924;-67
2022/05/14 02:39:45;;;;;;;;;;;11.40;99.90;;;;;;5053071;28;19928;-68
2022/05/14 02:42:10;;;;;;;;;;;11.30;99.90;;;;;;5053025;28;20063;-68
2022/05/14 02:44:36;;;;;;;;;;;11.40;99.90;;;;;;5051702;28;19924;-69
2022/05/14 02:47:02;;;;;;;;;;;11.50;99.90;;;;;;5052556;28;19929;-68
2022/05/14 02:49:28;;;;;;;;;;;11.30;99.90;;;;;;5052853;28;20434;-67
2022/05/14 02:51:53;;;;;;;;;;;11.30;99.90;;;;;;5052724;28;19928;-68
2022/05/14 02:54:19;;;;;;;;;;;11.30;99.90;;;;;;5052681;28;19924;-68
2022/05/14 02:56:44;;;;;;;;;;;11.40;99.90;;;;;;5052471;28;19948;-68
2022/05/14 02:59:10;;;;;;;;;;;11.30;99.90;;;;;;5052851;28;19978;-68
2022/05/14 03:01:36;;;;;;;;;;;11.30;99.90;;;;;;5035178;28;19925;-67
2022/05/14 03:04:02;;;;;;;;;;;11.30;99.90;;;;;;5052731;28;19929;-68
2022/05/14 03:06:28;;;;;;;;;;;11.40;99.90;;;;;;5052318;28;19936;-68
2022/05/14 03:08:54;;;;;;;;;;;11.20;99.90;;;;;;5056076;28;19975;-68
2022/05/14 03:11:19;;;;;;;;;;;11.40;99.90;;;;;;5055498;28;19925;-68
2022/05/14 03:13:45;;;;;;;;;;;11.00;99.90;;;;;;5056240;28;19979;-67
2022/05/14 03:16:11;;;;;;;;;;;11.20;99.90;;;;;;5054653;28;19932;-68
2022/05/14 03:18:37;;;;;;;;;;;11.20;99.90;;;;;;5054804;28;19963;-69
2022/05/14 03:21:02;;;;;;;;;;;11.10;99.90;;;;;;5055077;28;19929;-68
2022/05/14 03:23:28;;;;;;;;;;;11.10;99.90;;;;;;5055189;28;20016;-69
2022/05/14 03:25:54;;;;;;;;;;;11.10;99.90;;;;;;5056107;28;19932;-69
2022/05/14 03:28:19;;;;;;;;;;;11.00;99.90;;;;;;5055735;28;20420;-67
2022/05/14 03:30:45;;;;;;;;;;;11.00;99.90;;;;;;5055978;28;19925;-68
2022/05/14 03:33:10;;;;;;;;;;;11.00;99.90;;;;;;5056012;28;19964;-68
2022/05/14 03:35:36;;;;;;;;;;;11.00;99.90;;;;;;5055864;28;19924;-70
2022/05/14 03:38:01;;;;;;;;;;;11.00;99.90;;;;;;5055312;28;20002;-67
2022/05/14 03:40:27;;;;;;;;;;;10.90;99.90;;;;;;5056038;28;20354;-68
2022/05/14 03:42:52;;;;;;;;;;;11.20;99.90;;;;;;5055974;28;19925;-66
2022/05/14 03:45:18;;;;;;;;;;;10.80;99.90;;;;;;5054703;28;19925;-69
2022/05/14 03:47:44;;;;;;;;;;;10.80;99.90;;;;;;5055789;28;19925;-68
2022/05/14 03:50:09;;;;;;;;;;;10.80;99.90;;;;;;5054858;28;20016;-69
2022/05/14 03:52:35;;;;;;;;;;;10.80;99.90;;;;;;5055305;28;19925;-68
2022/05/14 03:55:00;;;;;;;;;;;10.90;99.90;;;;;;5055482;28;19978;-68
2022/05/14 03:57:26;;;;;;;;;;;10.80;99.90;;;;;;5055406;28;19947;-68
2022/05/14 03:59:51;;;;;;;;;;;10.80;99.90;;;;;;5054969;28;19937;-68
2022/05/14 04:02:17;;;;;;;;;;;10.80;99.90;;;;;;5054851;28;20061;-68
2022/05/14 04:04:43;;;;;;;;;;;10.80;99.90;;;;;;5055476;28;19932;-68
2022/05/14 04:07:10;;;;;;;;;;;10.80;99.90;;;;;;5054433;28;19925;-68
2022/05/14 04:09:35;;;;;;;;;;;10.80;99.90;;;;;;5054708;28;19924;-67
2022/05/14 04:12:01;;;;;;;;;;;10.70;99.90;;;;;;5054187;28;20395;-67
2022/05/14 04:14:27;;;;;;;;;;;10.70;99.90;;;;;;5055280;28;19924;-68
2022/05/14 04:16:52;;;;;;;;;;;10.70;99.90;;;;;;5055344;28;19929;-69
2022/05/14 04:19:21;;;;;;;;;;;11.00;99.90;;;;;;5055166;28;20334;-68
2022/05/14 04:21:47;;;;;;;;;;;10.70;99.90;;;;;;5054808;28;19929;-68
2022/05/14 04:24:13;;;;;;;;;;;10.70;99.90;;;;;;5054842;28;20330;-67
2022/05/14 04:26:38;;;;;;;;;;;10.70;99.90;;;;;;5054264;28;19971;-69
2022/05/14 04:29:04;;;;;;;;;;;10.80;99.90;;;;;;5055121;28;19932;-67
2022/05/14 04:31:30;;;;;;;;;;;10.70;99.90;;;;;;5054981;28;19924;-68
2022/05/14 04:33:57;;;;;;;;;;;10.70;99.90;;;;;;5054619;28;19960;-67
2022/05/14 04:36:23;;;;;;;;;;;11.30;99.90;;;;;;5054806;28;19928;-69
2022/05/14 04:38:49;;;;;;;;;;;10.80;99.90;;;;;;5054483;28;19970;-68
2022/05/14 04:41:15;;;;;;;;;;;10.00;99.90;;;;;;5053720;28;19924;-68
2022/05/14 04:43:40;;;;;;;;;;;10.70;99.90;;;;;;5054671;28;20406;-69
2022/05/14 04:46:07;;;;;;;;;;;10.70;99.90;;;;;;5054735;28;19991;-67
2022/05/14 04:48:34;;;;;;;;;;;10.80;99.90;;;;;;5054679;28;19928;-67
2022/05/14 04:50:59;;;;;;;;;;;10.90;99.90;;;;;;5054504;28;19972;-67
2022/05/14 04:53:25;;;;;;;;;;;10.80;99.90;;;;;;5054380;28;19925;-69
2022/05/14 04:55:51;;;;;;;;;;;10.80;99.90;;;;;;5054200;28;19928;-66
2022/05/14 04:58:16;;;;;;;;;;;10.80;99.90;;;;;;5053548;28;19925;-67
2022/05/14 05:00:42;;;;;;;;;;;10.80;99.90;;;;;;5054466;28;19929;-68
2022/05/14 05:03:17;;;;;;;;;;;10.90;99.90;;;;;;5054406;28;20376;-69
2022/05/14 05:05:43;;;;;;;;;;;11.60;99.90;;;;;;5053919;28;19933;-68
2022/05/14 05:08:09;;;;;;;;;;;11.00;99.90;;;;;;5053133;28;20011;-69
2022/05/14 05:10:35;;;;;;;;;;;11.00;99.90;;;;;;5054455;28;19925;-67
2022/05/14 05:13:01;;;;;;;;;;;11.10;99.90;;;;;;5054323;28;19951;-68
2022/05/14 05:15:27;;;;;;;;;;;11.10;99.90;;;;;;5053145;28;19939;-68
2022/05/14 05:17:52;;;;;;;;;;;11.20;99.90;;;;;;5053340;28;19929;-69
2022/05/14 05:20:18;;;;;;;;;;;11.30;99.90;;;;;;5054095;28;19925;-69
2022/05/14 05:22:44;;;;;;;;;;;11.30;99.90;;;;;;5053828;28;19924;-69
2022/05/14 05:25:10;;;;;;;;;;;11.30;99.90;;;;;;5053068;28;20445;-68
2022/05/14 05:27:36;;;;;;;;;;;11.40;99.90;;;;;;5053741;28;19925;-68
2022/05/14 05:30:03;;;;;;;;;;;11.40;99.90;;;;;;5052470;28;20217;-67
2022/05/14 05:32:28;;;;;;;;;;;11.50;99.90;;;;;;5053938;28;19928;-68
2022/05/14 05:34:54;;;;;;;;;;;11.50;99.90;;;;;;5052647;28;19925;-68
2022/05/14 05:37:19;;;;;;;;;;;11.50;99.90;;;;;;5052579;28;20315;-67
2022/05/14 05:39:45;;;;;;;;;;;11.50;99.90;;;;;;5052599;28;19931;-69
2022/05/14 05:42:11;;;;;;;;;;;11.50;99.90;;;;;;5053927;28;19931;-70
2022/05/14 05:44:36;;;;;;;;;;;11.80;99.90;;;;;;5053821;28;20033;-67
2022/05/14 05:47:06;;;;;;;;;;;11.40;99.90;;;;;;5052804;28;20391;-66
2022/05/14 05:49:32;;;;;;;;;;;11.60;99.90;;;;;;5052441;28;19925;-68
2022/05/14 05:51:58;;;;;;;;;;;11.70;99.90;;;;;;5053694;28;19925;-67
2022/05/14 05:57:07;;;;;;;;;;;11.80;99.90;;;;;;5053764;28;19925;-69
2022/05/14 05:59:33;;;;;;;;;;;11.90;99.90;;;;;;5053304;28;20330;-68
2022/05/14 06:01:59;;;;;;;;;;;12.00;99.90;;;;;;5053508;28;20299;-69
2022/05/14 06:04:24;;;;;;;;;;;12.10;99.90;;;;;;5053425;28;19924;-67
2022/05/14 06:06:50;;;;;;;;;;;12.60;99.90;;;;;;5053445;28;19969;-69
2022/05/14 06:09:17;;;;;;;;;;;12.40;99.90;;;;;;5052746;28;19932;-68
2022/05/14 06:11:42;;;;;;;;;;;11.70;99.90;;;;;;5053169;28;19935;-68
2022/05/14 06:14:08;;;;;;;;;;;12.70;99.90;;;;;;5053145;28;19925;-68
2022/05/14 06:16:34;;;;;;;;;;;11.70;99.90;;;;;;5053414;28;19947;-69
2022/05/14 06:19:00;;;;;;;;;;;12.90;99.90;;;;;;5053498;28;20360;-69
2022/05/14 06:21:25;;;;;;;;;;;13.00;99.90;;;;;;5053300;28;19924;-69
2022/05/14 06:23:51;;;;;;;;;;;13.00;99.90;;;;;;5052790;28;20332;-69
2022/05/14 06:26:17;;;;;;;;;;;13.00;99.90;;;;;;5052515;28;20350;-69
2022/05/14 06:28:43;;;;;;;;;;;13.10;99.90;;;;;;5053377;28;19925;-68
2022/05/14 06:31:08;;;;;;;;;;;13.10;99.90;;;;;;5052406;28;19928;-68
2022/05/14 06:33:34;;;;;;;;;;;13.10;99.90;;;;;;5053134;28;19979;-68
2022/05/14 06:35:59;;;;;;;;;;;13.10;99.90;;;;;;5052882;28;19925;-69
2022/05/14 06:38:26;;;;;;;;;;;13.20;99.90;;;;;;5052797;28;19925;-68
2022/05/14 06:40:52;;;;;;;;;;;13.30;99.90;;;;;;5035792;28;20007;-69
2022/05/14 06:43:18;;;;;;;;;;;13.40;99.90;;;;;;5055438;28;20015;-68
2022/05/14 06:45:44;;;;;;;;;;;13.30;99.90;;;;;;5055812;28;20356;-68
2022/05/14 06:48:10;;;;;;;;;;;13.40;99.90;;;;;;5056745;28;19928;-69
2022/05/14 06:50:43;;;;;;;;;;;13.40;99.90;;;;;;5056391;28;20019;-69
2022/05/14 06:53:09;;;;;;;;;;;13.50;99.90;;;;;;5056430;28;19932;-68
2022/05/14 06:55:36;;;;;;;;;;;13.70;99.90;;;;;;5056749;28;19925;-69
2022/05/14 06:58:02;;;;;;;;;;;14.30;99.90;;;;;;5056860;28;19963;-68
2022/05/14 07:00:28;;;;;;;;;;;13.70;99.90;;;;;;5056295;28;19925;-68
2022/05/14 07:06:37;;;;;;;;;;;13.80;99.90;;;;;;5056588;28;20346;-68
2022/05/14 07:08:26;;;;;;;;;;;13.90;99.90;;;;;;5054198;28;20044;-67
2022/05/14 07:10:51;;;;;;;;;;;14.00;99.90;;;;;;5053781;28;19924;-68
2022/05/14 07:13:17;;;;;;;;;;;14.00;99.90;;;;;;5039911;28;19924;-68
2022/05/14 07:15:51;;;;;;;;;;;14.10;99.90;;;;;;5034043;28;20378;-68
2022/05/14 07:18:17;;;;;;;;;;;14.20;99.90;;;;;;5051064;28;20044;-69
2022/05/14 07:20:42;;;;;;;;;;;14.30;99.90;;;;;;5023076;28;19928;-68
2022/05/14 07:23:08;;;;;;;;;;;14.30;99.90;;;;;;5053948;28;19925;-67
2022/05/14 07:25:33;;;;;;;;;;;14.40;99.90;;;;;;5036330;28;19925;-69
2022/05/14 07:27:59;;;;;;;;;;;14.50;99.90;;;;;;5025444;28;20016;-69
2022/05/14 07:30:25;;;;;;;;;;;14.50;99.90;;;;;;5036359;28;19977;-71
2022/05/14 07:32:50;;;;;;;;;;;14.50;99.90;;;;;;5050606;28;19956;-69
2022/05/14 07:35:16;;;;;;;;;;;14.60;99.90;;;;;;5053732;28;20001;-70
2022/05/14 07:37:44;;;;;;;;;;;14.60;99.90;;;;;;5036951;28;19979;-69
2022/05/14 07:40:15;;;;;;;;;;;14.60;99.90;;;;;;5053922;28;20374;-69
2022/05/14 07:42:43;;;;;;;;;;;14.70;99.90;;;;;;5053427;28;19925;-70
2022/05/14 07:45:10;;;;;;;;;;;14.70;99.90;;;;;;5047194;28;19932;-70
2022/05/14 07:47:37;;;;;;;;;;;14.80;99.90;;;;;;5034662;28;19925;-69
2022/05/14 07:50:03;;;;;;;;;;;14.90;99.90;;;;;;5047670;28;19979;-70
2022/05/14 07:52:29;;;;;;;;;;;14.90;99.90;;;;;;5055752;28;19968;-69
2022/05/14 07:54:54;;;;;;;;;;;15.00;99.90;;;;;;5055047;28;20411;-69
2022/05/14 07:57:20;;;;;;;;;;;15.00;99.90;;;;;;5055686;28;19924;-71
2022/05/14 07:59:46;;;;;;;;;;;15.10;99.90;;;;;;5055155;28;19951;-70
2022/05/14 08:02:26;;;;;;;;;;;15.20;99.90;;;;;;5051437;28;19929;-70
2022/05/14 08:04:52;;;;;;;;;;;15.20;99.90;;;;;;5035734;28;19929;-69
2022/05/14 08:07:18;;;;;;;;;;;15.30;99.90;;;;;;5049913;28;19925;-70
2022/05/14 08:09:43;;;;;;;;;;;15.30;99.90;;;;;;5055074;28;21804;-70
2022/05/14 08:12:11;;;;;;;;;;;15.40;99.90;;;;;;5055410;28;19932;-69
2022/05/14 08:14:39;;;;;;;;;;;15.40;99.90;;;;;;5054097;28;19928;-70
2022/05/14 08:17:09;;;;;;;;;;;15.50;99.90;;;;;;5054005;28;20021;-70
2022/05/14 08:19:34;;;;;;;;;;;15.50;99.90;;;;;;5054194;28;19925;-72
2022/05/14 08:24:44;;;;;;;;;;;15.70;99.90;;;;;;5055075;28;20146;-69
2022/05/14 08:27:10;;;;;;;;;;;15.70;99.90;;;;;;5054121;28;20596;-70
2022/05/14 08:29:36;;;;;;;;;;;15.80;99.90;;;;;;5054024;28;20372;-70
2022/05/14 08:32:03;;;;;;;;;;;15.80;99.90;;;;;;5054689;28;19924;-70
2022/05/14 08:34:28;;;;;;;;;;;15.90;99.90;;;;;;5053500;28;19931;-70
2022/05/14 08:36:54;;;;;;;;;;;16.00;99.90;;;;;;5054829;28;20023;-70
2022/05/14 08:39:20;;;;;;;;;;;16.00;99.90;;;;;;5054620;28;20018;-69
2022/05/14 08:41:48;;;;;;;;;;;16.10;99.90;;;;;;5053158;28;19928;-70
2022/05/14 08:44:15;;;;;;;;;;;15.80;99.90;;;;;;5052277;28;19968;-70
2022/05/14 08:46:42;;;;;;;;;;;16.10;99.90;;;;;;5054555;28;19970;-70
2022/05/14 08:49:14;;;;;;;;;;;16.20;99.90;;;;;;5054194;28;19935;-70
2022/05/14 08:51:42;;;;;;;;;;;16.20;99.90;;;;;;5054644;28;19924;-69
2022/05/14 08:54:08;;;;;;;;;;;16.20;99.90;;;;;;5054147;28;19925;-70
2022/05/14 08:56:52;;;;;;;;;;;16.30;99.90;;;;;;5053198;28;19950;-70
2022/05/14 08:59:29;;;;;;;;;;;16.40;99.90;;;;;;5053268;28;19924;-70
2022/05/14 09:02:05;;;;;;;;;;;16.50;99.90;;;;;;5054412;28;19929;-68
2022/05/14 09:04:30;;;;;;;;;;;16.50;99.90;;;;;;5049396;28;20022;-70
2022/05/14 09:06:56;;;;;;;;;;;16.50;99.90;;;;;;5053641;28;19924;-69
2022/05/14 09:09:22;;;;;;;;;;;16.50;99.90;;;;;;5054258;28;20015;-70
2022/05/14 09:11:55;;;;;;;;;;;16.60;99.90;;;;;;5054253;28;20384;-73
2022/05/14 09:14:24;;;;;;;;;;;16.60;99.90;;;;;;5054192;28;20291;-69
2022/05/14 09:16:57;;;;;;;;;;;16.60;99.90;;;;;;5052942;28;19925;-70
2022/05/14 09:19:27;;;;;;;;;;;16.60;99.90;;;;;;5054149;28;20380;-70
2022/05/14 09:21:57;;;;;;;;;;;16.60;99.90;;;;;;5053991;28;19929;-70
2022/05/14 09:24:28;;;;;;;;;;;16.70;99.90;;;;;;5036301;28;20031;-70
2022/05/14 09:27:08;;;;;;;;;;;16.80;99.90;;;;;;5053367;28;20434;-70
2022/05/14 09:29:42;;;;;;;;;;;16.90;99.90;;;;;;5038535;28;20014;-70
2022/05/14 09:32:16;;;;;;;;;;;17.00;99.90;;;;;;5034097;28;19932;-70
2022/05/14 09:34:42;;;;;;;;;;;17.10;99.90;;;;;;5033795;28;19925;-70
2022/05/14 09:37:09;;;;;;;;;;;17.10;99.90;;;;;;5044370;28;19931;-69
2022/05/14 09:39:35;;;;;;;;;;;17.10;99.90;;;;;;5054022;28;19947;-69
2022/05/14 09:42:01;;;;;;;;;;;17.20;99.90;;;;;;5056589;28;20391;-71
2022/05/14 09:44:27;;;;;;;;;;;17.20;99.90;;;;;;5057175;28;19925;-70
2022/05/14 09:47:04;;;;;;;;;;;17.20;99.90;;;;;;5038102;28;19947;-71
2022/05/14 09:49:29;;;;;;;;;;;17.20;99.90;;;;;;5053492;28;19924;-71
2022/05/14 09:52:00;;;;;;;;;;;17.10;99.90;;;;;;5053765;28;19925;-71
2022/05/14 09:54:26;;;;;;;;;;;17.20;99.90;;;;;;5046139;28;19925;-69
2022/05/14 09:56:51;;;;;;;;;;;17.30;99.90;;;;;;5032609;28;19925;-70
2022/05/14 09:59:37;;;;;;;;;;;17.40;99.90;;;;;;5032788;28;20296;-70
2022/05/14 10:02:21;;;;;;;;;;;17.40;99.90;;;;;;5032844;28;19936;-70
2022/05/14 10:04:56;;;;;;;;;;;17.50;99.90;;;;;;5032541;28;20021;-71
2022/05/14 10:07:31;;;;;;;;;;;17.60;99.90;;;;;;5032743;28;19925;-70
2022/05/14 10:10:12;;;;;;;;;;;17.60;99.90;;;;;;5033527;28;19929;-71
2022/05/14 10:12:41;;;;;;;;;;;17.70;99.90;;;;;;5032539;28;19931;-70
2022/05/14 10:15:25;;;;;;;;;;;17.60;99.90;;;;;;5033488;28;19932;-70
2022/05/14 10:17:56;;;;;;;;;;;17.70;99.90;;;;;;5037077;28;19932;-69
2022/05/14 10:20:33;;;;;;;;;;;17.70;99.90;;;;;;5037314;28;20019;-73
2022/05/14 10:29:17;;;;;;;;;;;17.80;99.90;;;;;;5037251;28;19937;-70
2022/05/14 10:31:56;;;;;;;;;;;17.90;99.90;;;;;;5037195;28;19972;-71
2022/05/14 10:34:35;;;;;;;;;;;17.90;99.90;;;;;;5036975;28;20296;-71
2022/05/14 10:37:04;;;;;;;;;;;17.80;99.90;;;;;;5037032;28;19932;-71
2022/05/14 10:39:35;;;;;;;;;;;17.70;99.90;;;;;;5037050;28;20380;-71
2022/05/14 10:42:10;;;;;;;;;;;17.60;99.90;;;;;;5036909;28;19965;-71
2022/05/14 10:44:41;;;;;;;;;;;17.60;99.90;;;;;;5036959;28;20016;-70
2022/05/14 10:47:09;;;;;;;;;;;17.50;99.90;;;;;;5036837;28;19926;-69
2022/05/14 10:49:37;;;;;;;;;;;17.50;99.90;;;;;;5036787;28;20402;-71
2022/05/14 10:52:03;;;;;;;;;;;17.50;99.90;;;;;;5036677;28;20373;-70
2022/05/14 10:54:32;;;;;;;;;;;17.60;99.90;;;;;;5035576;28;19932;-71
2022/05/14 10:56:59;;;;;;;;;;;17.80;99.90;;;;;;5036844;28;20403;-70
2022/05/14 10:59:34;;;;;;;;;;;17.80;99.90;;;;;;5036709;28;20376;-70
2022/05/14 11:02:03;;;;;;;;;;;17.90;99.90;;;;;;5036596;28;19932;-72
2022/05/14 11:04:51;;;;;;;;;;;17.90;99.90;;;;;;5036579;28;19929;-70
2022/05/14 11:07:33;;;;;;;;;;;17.90;99.90;;;;;;5034538;28;20008;-71
2022/05/14 11:10:18;;;;;;;;;;;18.00;99.90;;;;;;5036561;28;19932;-70
2022/05/14 11:12:44;;;;;;;;;;;18.00;99.90;;;;;;5036370;28;19925;-72
2022/05/14 11:15:19;;;;;;;;;;;17.60;99.90;;;;;;5036166;28;20015;-70
2022/05/14 11:17:44;;;;;;;;;;;18.00;99.90;;;;;;5036105;28;19932;-72
2022/05/14 11:20:12;;;;;;;;;;;18.00;99.90;;;;;;5036133;28;19925;-71
2022/05/14 11:22:42;;;;;;;;;;;18.00;99.90;;;;;;5036196;28;19936;-70
2022/05/14 11:25:17;;;;;;;;;;;18.00;99.90;;;;;;5036248;28;19929;-72
2022/05/14 11:28:03;;;;;;;;;;;18.20;99.90;;;;;;5035299;28;19929;-70
2022/05/14 11:30:45;;;;;;;;;;;18.30;99.90;;;;;;5024497;28;19932;-71
2022/05/14 11:33:22;;;;;;;;;;;18.40;99.90;;;;;;5035954;28;20442;-71
2022/05/14 11:35:48;;;;;;;;;;;18.50;99.90;;;;;;5035888;28;20368;-70
2022/05/14 11:38:38;;;;;;;;;;;18.60;99.10;;;;;;5035970;28;19925;-70
2022/05/14 11:41:05;;;;;;;;;;;18.60;98.90;;;;;;5036031;28;19933;-71
2022/05/14 11:43:33;;;;;;;;;;;18.70;96.90;;;;;;5035806;28;20406;-71
2022/05/14 11:46:17;;;;;;;;;;;18.70;99.10;;;;;;5035666;28;20392;-70
2022/05/14 11:49:01;;;;;;;;;;;18.70;96.10;;;;;;5035699;28;19929;-71
2022/05/14 11:51:36;;;;;;;;;;;18.80;82.90;;;;;;5035768;28;20395;-70
2022/05/14 11:54:08;;;;;;;;;;;18.80;97.20;;;;;;5035443;28;19925;-70
2022/05/14 11:56:33;;;;;;;;;;;18.80;97.20;;;;;;5033987;28;20373;-71
2022/05/14 11:59:07;;;;;;;;;;;18.80;94.10;;;;;;5035241;28;19932;-71
2022/05/14 12:01:36;;;;;;;;;;;18.70;96.90;;;;;;5035285;28;19929;-71
2022/05/14 12:04:07;;;;;;;;;;;18.70;99.90;;;;;;5035335;28;19926;-70
2022/05/14 12:06:35;;;;;;;;;;;18.70;96.70;;;;;;5035574;28;19929;-72
2022/05/14 12:09:03;;;;;;;;;;;18.80;97.50;;;;;;5035431;28;19932;-70
2022/05/14 12:11:32;;;;;;;;;;;18.80;95.70;;;;;;5035309;28;19933;-71
2022/05/14 12:14:00;;;;;;;;;;;18.90;94.60;;;;;;5035153;28;19925;-71
2022/05/14 12:16:32;;;;;;;;;;;19.00;99.30;;;;;;5035117;28;19925;-71
2022/05/14 12:19:02;;;;;;;;;;;19.00;96.70;;;;;;5035321;28;19932;-73
2022/05/14 12:21:31;;;;;;;;;;;19.00;93.90;;;;;;5035072;28;19987;-70
2022/05/14 12:23:56;;;;;;;;;;;19.00;96.00;;;;;;5034988;28;19987;-70
2022/05/14 12:26:24;;;;;;;;;;;19.00;96.70;;;;;;5035320;28;20270;-71
2022/05/14 12:28:51;;;;;;;;;;;19.00;91.70;;;;;;5034912;28;19932;-71
2022/05/14 12:34:07;;;;;;;;;;;18.90;91.60;;;;;;5034763;28;19932;-70
2022/05/14 12:36:34;;;;;;;;;;;18.80;94.60;;;;;;5034807;28;19929;-72
2022/05/14 12:39:03;;;;;;;;;;;18.80;93.50;;;;;;5049990;28;19925;-71
2022/05/14 12:41:31;;;;;;;;;;;18.80;96.60;;;;;;5052770;28;20019;-70
2022/05/14 12:44:03;;;;;;;;;;;18.80;94.00;;;;;;5053479;28;19983;-70
2022/05/14 12:46:29;;;;;;;;;;;18.80;98.90;;;;;;5052320;28;19924;-69
2022/05/14 12:48:57;;;;;;;;;;;18.90;98.70;;;;;;5039647;28;19926;-71
2022/05/14 12:51:25;;;;;;;;;;;18.90;98.30;;;;;;5034499;28;20148;-71
2022/05/14 12:53:51;;;;;;;;;;;18.90;93.00;;;;;;5038866;28;20447;-70
2022/05/14 12:56:17;;;;;;;;;;;19.00;90.00;;;;;;5050763;28;19967;-71
2022/05/14 12:58:43;;;;;;;;;;;19.00;90.50;;;;;;5054449;28;20330;-71
2022/05/14 13:01:10;;;;;;;;;;;18.20;91.70;;;;;;5054429;28;19924;-71
2022/05/14 13:03:35;;;;;;;;;;;19.00;93.20;;;;;;5053349;28;19964;-71
2022/05/14 13:06:09;;;;;;;;;;;19.00;92.10;;;;;;5054337;28;19979;-69
2022/05/14 13:08:40;;;;;;;;;;;19.00;90.60;;;;;;5054223;28;19932;-69
2022/05/14 13:11:11;;;;;;;;;;;19.00;90.20;;;;;;5053108;28;19932;-69
2022/05/14 13:13:41;;;;;;;;;;;19.00;90.70;;;;;;5053888;28;20406;-71
2022/05/14 13:16:39;;;;;;;;;;;19.00;89.40;;;;;;5054103;28;19979;-70
2022/05/14 13:19:16;;;;;;;;;;;19.00;99.30;;;;;;5012050;28;19933;-71
2022/05/14 13:21:46;;;;;;;;;;;19.00;99.90;;;;;;5012015;28;20422;-72
2022/05/14 13:24:28;;;;;;;;;;;19.00;99.90;;;;;;5012036;28;19926;-70
2022/05/14 13:26:55;;;;;;;;;;;18.90;95.40;;;;;;4995777;28;20032;-70
2022/05/14 13:29:21;;;;;;;;;;;18.80;98.10;;;;;;5011664;28;19967;-71
2022/05/14 13:31:48;;;;;;;;;;;18.80;98.80;;;;;;5011912;28;19976;-72
2022/05/14 13:37:11;;;;;;;;;;;18.80;98.30;;;;;;4995710;28;19956;-72
2022/05/14 13:39:48;;;;;;;;;;;18.80;99.80;;;;;;5011395;28;20339;-70
2022/05/14 13:42:21;;;;;;;;;;;18.80;99.90;;;;;;5011775;28;19932;-72
2022/05/14 13:44:49;;;;;;;;;;;18.80;95.80;;;;;;5011574;28;19932;-70
2022/05/14 13:47:23;;;;;;;;;;;18.70;94.60;;;;;;4995516;28;20023;-71
2022/05/14 13:49:51;;;;;;;;;;;18.70;98.70;;;;;;5011658;28;19926;-70
2022/05/14 13:52:23;;;;;;;;;;;18.60;99.90;;;;;;5011197;28;20083;-70
2022/05/14 13:54:59;;;;;;;;;;;18.60;99.20;;;;;;5035048;28;20392;-71
2022/05/14 13:57:25;;;;;;;;;;;18.60;97.90;;;;;;5053703;28;19951;-71
2022/05/14 14:00:02;;;;;;;;;;;18.60;99.90;;;;;;5052565;28;19951;-71
2022/05/14 14:02:29;;;;;;;;;;;18.60;99.90;;;;;;5053154;28;19929;-71
2022/05/14 14:04:58;;;;;;;;;;;18.60;99.90;;;;;;5053576;28;20375;-70
2022/05/14 14:07:25;;;;;;;;;;;18.60;99.90;;;;;;5053514;28;19925;-72
2022/05/14 14:09:51;;;;;;;;;;;18.60;99.90;;;;;;5052290;28;19932;-70
2022/05/14 14:12:16;;;;;;;;;;;18.60;99.90;;;;;;5053613;28;19925;-72
2022/05/14 14:14:42;;;;;;;;;;;18.60;99.40;;;;;;5053329;28;19929;-70
2022/05/14 14:17:08;;;;;;;;;;;18.60;99.90;;;;;;5053643;28;19924;-70
2022/05/14 14:19:34;;;;;;;;;;;18.70;99.90;;;;;;5053417;28;19925;-70
2022/05/14 14:22:01;;;;;;;;;;;18.70;97.70;;;;;;5052390;28;19925;-72
2022/05/14 14:24:27;;;;;;;;;;;18.70;99.90;;;;;;5052732;28;19948;-71
2022/05/14 14:26:53;;;;;;;;;;;18.70;99.90;;;;;;5051930;28;20388;-69
2022/05/14 14:29:22;;;;;;;;;;;18.70;99.20;;;;;;5039456;28;19925;-70
2022/05/14 14:31:48;;;;;;;;;;;18.70;99.90;;;;;;5042675;28;19925;-72
2022/05/14 14:34:14;;;;;;;;;;;18.70;99.90;;;;;;5044997;28;19932;-72
2022/05/14 14:36:39;;;;;;;;;;;18.60;99.90;;;;;;5033023;28;19926;-72
2022/05/14 14:39:06;;;;;;;;;;;18.70;99.90;;;;;;5033276;28;19925;-71
2022/05/14 14:41:32;;;;;;;;;;;18.70;99.90;;;;;;5033136;28;19932;-70
2022/05/14 14:43:57;;;;;;;;;;;18.60;99.90;;;;;;5033230;28;19925;-72
2022/05/14 14:46:23;;;;;;;;;;;18.50;99.90;;;;;;5033369;28;19937;-72